Terminal Aerodrome Forecast
Issued by NWS

Home | Current Version | Previous Version | Graphics & Text | Print | Product List | Glossary On
Versions: 1 2 3 4 5 6 7 8 9 10 11 12 13 14 15 16 17 18
000
FTUS43 KOAX 210316 AAA
TAFCDR
TAF AMD
KCDR 210316Z 2103/2124 16015KT P6SM FEW100
     FM210800 17020G30KT P6SM FEW100
     FM211500 20013G23KT P6SM SKC=

USA.gov is the U.S. government's official web portal to all federal, state and local government web resources and services.